Overview Statistics Trail Chart Weather Telemetry Raw packets
 

This is the latest recevied weather packets stored in our database for station/object SP4MGL-10. If no packets are shown the sender has not sent any weather packets the latest 10 day(s).

<< 15 16 17 18 19 20 21 >>
Time Temp. Humidity Pressure Rain* Wind** Luminosity Snow
1788106695 27.22° C 46% 1013.4 hPa - - - -
1788105800 27.22° C 45% 1013.3 hPa - - - -
1788104894 30° C 40% 1013.5 hPa - - - -
1788103994 30.56° C 39% 1013.5 hPa - - - -
1788103094 27.78° C 44% 1013.6 hPa - - - -
1788102194 26.11° C 47% 1013.8 hPa - - - -
1788101294 25.56° C 47% 1013.8 hPa - - - -
1788100393 27.22° C 42% 1013.8 hPa - - - -
1788099493 28.33° C 40% 1013.9 hPa - - - -
1788098593 31.67° C 34% 1014.2 hPa - - - -
1788097693 30° C 37% 1014.1 hPa - - - -
1788096793 31.11° C 35% 1014.1 hPa - - - -
1788095893 29.44° C 39% 1014.2 hPa - - - -
1788094992 28.33° C 42% 1014.3 hPa - - - -
1788094092 28.33° C 40% 1014.4 hPa - - - -
1788093192 30.56° C 38% 1014.3 hPa - - - -
1788092292 31.67° C 35% 1014.6 hPa - - - -
1788091392 26.67° C 44% 1014.5 hPa - - - -
1788090491 25.56° C 47% 1014.7 hPa - - - -
1788089591 26.67° C 44% 1014.9 hPa - - - -
1788088691 32.78° C 34% 1015 hPa - - - -
1788087791 28.33° C 42% 1015.1 hPa - - - -
1788086891 29.44° C 41% 1015.4 hPa - - - -
1788085990 25.56° C 49% 1015.4 hPa - - - -
1788085090 24.44° C 52% 1015.4 hPa - - - -

* Rain since midnight (hover to see other rain measurements)
** Current wind speed in m/s (hover to see current wind gust speed)